Lambs Grove, Massachusetts
Current Conditions -  °F | °C
As of 6:54 AM on Friday 31 Oct 2014 (Local Time) from KORH Reporting Station
Overcast Overcast  
Wind Chill: 36°   Ceiling: 4800
Heat Index: 40°   Visibility: 10mi
Dew Point: 33°   Wind: 6mph
Humidity: 77%   Direction: 20°NNE
Pressure: 30.01"   Gusts: NA
Location:  42.2477°N, 71.9927°W
Report Text: KORH 311054Z 02005KT 10SM FEW017 OVC048 04/01 A3001 RMK AO2 SLP169 T00440006
Loading
Personal Weather Stations






























Interactive Weather Map
Tropical Storm Tracking
New forecast layout! Learn more

10-Day Weather Forecast

Advertisements
Track Severe Weather on mobile